sensor_id;sensor_type;location;lat;lon;timestamp;P1;durP1;ratioP1;P2;durP2;ratioP2
8982;SDS011;20979;59.850;10.660;2024-01-11T00:02:06;25.73;;;16.07;;
8982;SDS011;20979;59.850;10.660;2024-01-11T00:04:33;24.00;;;15.97;;
8982;SDS011;20979;59.850;10.660;2024-01-11T00:07:01;24.40;;;15.87;;
8982;SDS011;20979;59.850;10.660;2024-01-11T00:09:28;24.30;;;15.03;;
8982;SDS011;20979;59.850;10.660;2024-01-11T00:11:57;20.43;;;14.60;;
8982;SDS011;20979;59.850;10.660;2024-01-11T00:14:24;18.97;;;13.90;;
8982;SDS011;20979;59.850;10.660;2024-01-11T00:16:52;19.50;;;14.03;;
8982;SDS011;20979;59.850;10.660;2024-01-11T00:19:19;20.10;;;14.47;;
8982;SDS011;20979;59.850;10.660;2024-01-11T00:21:46;24.53;;;15.20;;
8982;SDS011;20979;59.850;10.660;2024-01-11T00:24:14;22.07;;;14.80;;
8982;SDS011;20979;59.850;10.660;2024-01-11T00:26:41;21.13;;;14.30;;
8982;SDS011;20979;59.850;10.660;2024-01-11T00:29:10;21.33;;;14.10;;
8982;SDS011;20979;59.850;10.660;2024-01-11T00:31:37;21.23;;;14.70;;
8982;SDS011;20979;59.850;10.660;2024-01-11T00:34:05;20.90;;;14.47;;
8982;SDS011;20979;59.850;10.660;2024-01-11T00:36:32;20.50;;;14.37;;
8982;SDS011;20979;59.850;10.660;2024-01-11T00:39:00;19.53;;;14.40;;
8982;SDS011;20979;59.850;10.660;2024-01-11T00:41:27;20.17;;;14.17;;
8982;SDS011;20979;59.850;10.660;2024-01-11T00:43:54;18.60;;;13.53;;
8982;SDS011;20979;59.850;10.660;2024-01-11T00:46:23;19.90;;;13.40;;
8982;SDS011;20979;59.850;10.660;2024-01-11T00:48:50;19.13;;;12.80;;
8982;SDS011;20979;59.850;10.660;2024-01-11T00:51:18;19.90;;;13.07;;
8982;SDS011;20979;59.850;10.660;2024-01-11T00:53:45;17.13;;;12.80;;
8982;SDS011;20979;59.850;10.660;2024-01-11T00:56:16;16.93;;;12.83;;
8982;SDS011;20979;59.850;10.660;2024-01-11T00:58:43;17.70;;;11.70;;
8982;SDS011;20979;59.850;10.660;2024-01-11T01:01:11;16.43;;;11.43;;
8982;SDS011;20979;59.850;10.660;2024-01-11T01:03:39;16.73;;;12.20;;
8982;SDS011;20979;59.850;10.660;2024-01-11T01:06:07;20.83;;;12.87;;
8982;SDS011;20979;59.850;10.660;2024-01-11T01:08:34;22.83;;;14.53;;
8982;SDS011;20979;59.850;10.660;2024-01-11T01:11:02;22.47;;;14.17;;
8982;SDS011;20979;59.850;10.660;2024-01-11T01:13:29;21.17;;;15.77;;
8982;SDS011;20979;59.850;10.660;2024-01-11T01:15:56;21.90;;;14.07;;
8982;SDS011;20979;59.850;10.660;2024-01-11T01:18:24;18.93;;;13.50;;
8982;SDS011;20979;59.850;10.660;2024-01-11T01:20:53;19.77;;;13.43;;
8982;SDS011;20979;59.850;10.660;2024-01-11T01:23:20;18.40;;;12.27;;
8982;SDS011;20979;59.850;10.660;2024-01-11T01:25:48;16.10;;;11.73;;
8982;SDS011;20979;59.850;10.660;2024-01-11T01:28:15;20.23;;;13.80;;
8982;SDS011;20979;59.850;10.660;2024-01-11T01:30:43;20.30;;;14.17;;
8982;SDS011;20979;59.850;10.660;2024-01-11T01:33:10;22.63;;;14.77;;
8982;SDS011;20979;59.850;10.660;2024-01-11T01:35:37;21.47;;;15.17;;
8982;SDS011;20979;59.850;10.660;2024-01-11T01:38:06;27.03;;;16.40;;
8982;SDS011;20979;59.850;10.660;2024-01-11T01:40:34;24.60;;;17.37;;
8982;SDS011;20979;59.850;10.660;2024-01-11T01:43:01;23.87;;;16.53;;
8982;SDS011;20979;59.850;10.660;2024-01-11T01:45:28;23.37;;;16.70;;
8982;SDS011;20979;59.850;10.660;2024-01-11T01:47:56;24.47;;;15.73;;
8982;SDS011;20979;59.850;10.660;2024-01-11T01:50:23;22.60;;;16.43;;
8982;SDS011;20979;59.850;10.660;2024-01-11T01:52:51;26.03;;;16.07;;
8982;SDS011;20979;59.850;10.660;2024-01-11T01:55:19;22.33;;;15.87;;
8982;SDS011;20979;59.850;10.660;2024-01-11T01:57:47;19.73;;;13.27;;
8982;SDS011;20979;59.850;10.660;2024-01-11T02:00:15;18.80;;;13.80;;
8982;SDS011;20979;59.850;10.660;2024-01-11T02:02:43;18.23;;;12.90;;
8982;SDS011;20979;59.850;10.660;2024-01-11T02:05:11;17.93;;;13.63;;
8982;SDS011;20979;59.850;10.660;2024-01-11T02:07:40;20.50;;;12.70;;
8982;SDS011;20979;59.850;10.660;2024-01-11T02:10:07;16.63;;;12.10;;
8982;SDS011;20979;59.850;10.660;2024-01-11T02:12:37;17.70;;;12.37;;
8982;SDS011;20979;59.850;10.660;2024-01-11T02:15:04;18.90;;;12.93;;
8982;SDS011;20979;59.850;10.660;2024-01-11T02:17:32;22.10;;;13.87;;
8982;SDS011;20979;59.850;10.660;2024-01-11T02:19:58;18.37;;;12.70;;
8982;SDS011;20979;59.850;10.660;2024-01-11T02:22:28;18.17;;;12.73;;
8982;SDS011;20979;59.850;10.660;2024-01-11T02:24:57;20.40;;;14.40;;
8982;SDS011;20979;59.850;10.660;2024-01-11T02:27:24;26.07;;;15.20;;
8982;SDS011;20979;59.850;10.660;2024-01-11T02:29:52;25.93;;;16.40;;
8982;SDS011;20979;59.850;10.660;2024-01-11T02:32:19;24.07;;;15.63;;
8982;SDS011;20979;59.850;10.660;2024-01-11T02:34:47;29.80;;;18.83;;
8982;SDS011;20979;59.850;10.660;2024-01-11T02:37:15;25.47;;;16.53;;
8982;SDS011;20979;59.850;10.660;2024-01-11T02:39:43;21.57;;;15.10;;
8982;SDS011;20979;59.850;10.660;2024-01-11T02:42:12;22.90;;;15.37;;
8982;SDS011;20979;59.850;10.660;2024-01-11T02:44:41;23.73;;;15.23;;
8982;SDS011;20979;59.850;10.660;2024-01-11T02:47:08;20.00;;;14.90;;
8982;SDS011;20979;59.850;10.660;2024-01-11T02:49:35;21.00;;;14.53;;
8982;SDS011;20979;59.850;10.660;2024-01-11T02:52:03;20.07;;;14.50;;
8982;SDS011;20979;59.850;10.660;2024-01-11T02:54:30;19.57;;;13.57;;
8982;SDS011;20979;59.850;10.660;2024-01-11T02:56:58;21.90;;;13.97;;
8982;SDS011;20979;59.850;10.660;2024-01-11T02:59:26;18.90;;;13.27;;
8982;SDS011;20979;59.850;10.660;2024-01-11T03:01:54;16.47;;;11.70;;
8982;SDS011;20979;59.850;10.660;2024-01-11T03:04:21;20.23;;;13.33;;
8982;SDS011;20979;59.850;10.660;2024-01-11T03:06:49;18.63;;;12.33;;
8982;SDS011;20979;59.850;10.660;2024-01-11T03:09:16;38.27;;;18.83;;
8982;SDS011;20979;59.850;10.660;2024-01-11T03:11:43;16.73;;;10.77;;
8982;SDS011;20979;59.850;10.660;2024-01-11T03:14:11;12.17;;;8.00;;
8982;SDS011;20979;59.850;10.660;2024-01-11T03:16:39;15.80;;;10.03;;
8982;SDS011;20979;59.850;10.660;2024-01-11T03:19:08;18.47;;;12.40;;
8982;SDS011;20979;59.850;10.660;2024-01-11T03:21:37;22.63;;;13.00;;
8982;SDS011;20979;59.850;10.660;2024-01-11T03:24:07;18.23;;;12.40;;
8982;SDS011;20979;59.850;10.660;2024-01-11T03:26:34;17.20;;;12.57;;
8982;SDS011;20979;59.850;10.660;2024-01-11T03:29:02;17.70;;;11.67;;
8982;SDS011;20979;59.850;10.660;2024-01-11T03:31:29;15.27;;;12.10;;
8982;SDS011;20979;59.850;10.660;2024-01-11T03:33:59;14.67;;;10.57;;
8982;SDS011;20979;59.850;10.660;2024-01-11T03:36:26;14.43;;;9.50;;
8982;SDS011;20979;59.850;10.660;2024-01-11T03:38:53;13.10;;;9.37;;
8982;SDS011;20979;59.850;10.660;2024-01-11T03:41:21;11.90;;;9.67;;
8982;SDS011;20979;59.850;10.660;2024-01-11T03:43:49;10.33;;;8.57;;
8982;SDS011;20979;59.850;10.660;2024-01-11T03:46:16;13.53;;;9.20;;
8982;SDS011;20979;59.850;10.660;2024-01-11T03:48:44;10.60;;;8.03;;
8982;SDS011;20979;59.850;10.660;2024-01-11T03:51:13;11.17;;;7.80;;
8982;SDS011;20979;59.850;10.660;2024-01-11T03:53:40;12.37;;;7.90;;
8982;SDS011;20979;59.850;10.660;2024-01-11T03:56:07;11.93;;;7.50;;
8982;SDS011;20979;59.850;10.660;2024-01-11T03:58:35;10.90;;;7.97;;
8982;SDS011;20979;59.850;10.660;2024-01-11T04:01:04;12.40;;;8.47;;
8982;SDS011;20979;59.850;10.660;2024-01-11T04:03:33;10.77;;;7.57;;
8982;SDS011;20979;59.850;10.660;2024-01-11T04:06:00;11.37;;;7.00;;
8982;SDS011;20979;59.850;10.660;2024-01-11T04:08:29;11.53;;;7.80;;
8982;SDS011;20979;59.850;10.660;2024-01-11T04:10:56;6.73;;;4.53;;
8982;SDS011;20979;59.850;10.660;2024-01-11T04:13:24;6.23;;;5.27;;
8982;SDS011;20979;59.850;10.660;2024-01-11T04:15:51;11.60;;;8.70;;
8982;SDS011;20979;59.850;10.660;2024-01-11T04:18:18;10.33;;;7.27;;
8982;SDS011;20979;59.850;10.660;2024-01-11T04:20:46;9.90;;;7.10;;
8982;SDS011;20979;59.850;10.660;2024-01-11T04:23:13;9.57;;;6.60;;
8982;SDS011;20979;59.850;10.660;2024-01-11T04:25:42;9.03;;;6.03;;
8982;SDS011;20979;59.850;10.660;2024-01-11T04:28:09;4.00;;;3.43;;
8982;SDS011;20979;59.850;10.660;2024-01-11T04:30:37;6.47;;;3.43;;
8982;SDS011;20979;59.850;10.660;2024-01-11T04:33:04;4.97;;;3.50;;
8982;SDS011;20979;59.850;10.660;2024-01-11T04:35:32;4.40;;;3.53;;
8982;SDS011;20979;59.850;10.660;2024-01-11T04:37:59;4.40;;;3.77;;
8982;SDS011;20979;59.850;10.660;2024-01-11T04:40:26;3.33;;;3.03;;
8982;SDS011;20979;59.850;10.660;2024-01-11T04:42:55;4.30;;;3.53;;
8982;SDS011;20979;59.850;10.660;2024-01-11T04:45:22;5.43;;;3.77;;
8982;SDS011;20979;59.850;10.660;2024-01-11T04:47:50;5.17;;;4.10;;
8982;SDS011;20979;59.850;10.660;2024-01-11T04:50:17;4.13;;;3.57;;
8982;SDS011;20979;59.850;10.660;2024-01-11T04:52:45;4.17;;;3.50;;
8982;SDS011;20979;59.850;10.660;2024-01-11T04:55:12;4.37;;;3.77;;
8982;SDS011;20979;59.850;10.660;2024-01-11T04:57:40;4.00;;;3.50;;
8982;SDS011;20979;59.850;10.660;2024-01-11T05:00:09;3.90;;;3.50;;
8982;SDS011;20979;59.850;10.660;2024-01-11T05:02:36;5.30;;;4.07;;
8982;SDS011;20979;59.850;10.660;2024-01-11T05:05:04;5.10;;;4.23;;
8982;SDS011;20979;59.850;10.660;2024-01-11T05:07:31;7.30;;;4.37;;
8982;SDS011;20979;59.850;10.660;2024-01-11T05:09:59;4.67;;;3.90;;
8982;SDS011;20979;59.850;10.660;2024-01-11T05:12:27;7.23;;;4.83;;
8982;SDS011;20979;59.850;10.660;2024-01-11T05:14:54;11.53;;;7.10;;
8982;SDS011;20979;59.850;10.660;2024-01-11T05:17:23;7.73;;;5.73;;
8982;SDS011;20979;59.850;10.660;2024-01-11T05:19:50;9.50;;;5.93;;
8982;SDS011;20979;59.850;10.660;2024-01-11T05:22:18;5.80;;;3.97;;
8982;SDS011;20979;59.850;10.660;2024-01-11T05:24:45;4.17;;;3.50;;
8982;SDS011;20979;59.850;10.660;2024-01-11T05:27:12;5.37;;;4.00;;
8982;SDS011;20979;59.850;10.660;2024-01-11T05:29:40;6.67;;;4.47;;
8982;SDS011;20979;59.850;10.660;2024-01-11T05:32:07;5.80;;;4.37;;
8982;SDS011;20979;59.850;10.660;2024-01-11T05:34:36;2.90;;;2.17;;
8982;SDS011;20979;59.850;10.660;2024-01-11T05:37:03;3.37;;;2.80;;
8982;SDS011;20979;59.850;10.660;2024-01-11T05:39:31;5.73;;;4.20;;
8982;SDS011;20979;59.850;10.660;2024-01-11T05:41:58;5.47;;;3.60;;
8982;SDS011;20979;59.850;10.660;2024-01-11T05:44:26;5.77;;;3.60;;
8982;SDS011;20979;59.850;10.660;2024-01-11T05:46:53;5.07;;;3.70;;
8982;SDS011;20979;59.850;10.660;2024-01-11T05:49:21;5.40;;;4.30;;
8982;SDS011;20979;59.850;10.660;2024-01-11T05:51:50;4.97;;;4.10;;
8982;SDS011;20979;59.850;10.660;2024-01-11T05:54:18;2.83;;;2.57;;
8982;SDS011;20979;59.850;10.660;2024-01-11T05:56:45;3.13;;;2.43;;
8982;SDS011;20979;59.850;10.660;2024-01-11T05:59:13;3.13;;;2.40;;
8982;SDS011;20979;59.850;10.660;2024-01-11T06:01:40;5.30;;;3.70;;
8982;SDS011;20979;59.850;10.660;2024-01-11T06:04:08;3.17;;;2.80;;
8982;SDS011;20979;59.850;10.660;2024-01-11T06:06:36;4.10;;;2.50;;
8982;SDS011;20979;59.850;10.660;2024-01-11T06:09:05;8.10;;;7.30;;
8982;SDS011;20979;59.850;10.660;2024-01-11T06:11:33;5.73;;;4.17;;
8982;SDS011;20979;59.850;10.660;2024-01-11T06:14:00;3.07;;;2.60;;
8982;SDS011;20979;59.850;10.660;2024-01-11T06:16:28;3.13;;;2.33;;
8982;SDS011;20979;59.850;10.660;2024-01-11T06:18:55;4.70;;;3.80;;
8982;SDS011;20979;59.850;10.660;2024-01-11T06:21:23;3.90;;;3.30;;
8982;SDS011;20979;59.850;10.660;2024-01-11T06:23:50;3.77;;;3.07;;
8982;SDS011;20979;59.850;10.660;2024-01-11T06:26:19;3.77;;;2.73;;
8982;SDS011;20979;59.850;10.660;2024-01-11T06:28:48;2.37;;;2.10;;
8982;SDS011;20979;59.850;10.660;2024-01-11T06:31:15;2.97;;;2.70;;
8982;SDS011;20979;59.850;10.660;2024-01-11T06:33:43;1.70;;;1.60;;
8982;SDS011;20979;59.850;10.660;2024-01-11T06:36:10;3.57;;;2.80;;
8982;SDS011;20979;59.850;10.660;2024-01-11T06:38:38;1.57;;;1.30;;
8982;SDS011;20979;59.850;10.660;2024-01-11T06:41:06;1.50;;;1.40;;
8982;SDS011;20979;59.850;10.660;2024-01-11T06:43:35;2.47;;;2.27;;
8982;SDS011;20979;59.850;10.660;2024-01-11T06:46:02;5.77;;;2.37;;
8982;SDS011;20979;59.850;10.660;2024-01-11T06:48:30;3.37;;;2.60;;
8982;SDS011;20979;59.850;10.660;2024-01-11T06:50:57;3.00;;;2.30;;
8982;SDS011;20979;59.850;10.660;2024-01-11T06:53:25;3.47;;;2.17;;
8982;SDS011;20979;59.850;10.660;2024-01-11T06:55:52;1.77;;;1.40;;
8982;SDS011;20979;59.850;10.660;2024-01-11T06:58:20;2.30;;;1.77;;
8982;SDS011;20979;59.850;10.660;2024-01-11T07:00:49;2.07;;;1.53;;
8982;SDS011;20979;59.850;10.660;2024-01-11T07:03:17;1.40;;;1.30;;
8982;SDS011;20979;59.850;10.660;2024-01-11T07:05:45;1.17;;;0.90;;
8982;SDS011;20979;59.850;10.660;2024-01-11T07:08:12;1.17;;;1.17;;
8982;SDS011;20979;59.850;10.660;2024-01-11T07:10:39;1.70;;;1.40;;
8982;SDS011;20979;59.850;10.660;2024-01-11T07:13:07;3.43;;;1.40;;
8982;SDS011;20979;59.850;10.660;2024-01-11T07:15:36;2.83;;;2.00;;
8982;SDS011;20979;59.850;10.660;2024-01-11T07:18:05;1.77;;;1.57;;
8982;SDS011;20979;59.850;10.660;2024-01-11T07:20:32;2.30;;;1.53;;
8982;SDS011;20979;59.850;10.660;2024-01-11T07:23:00;1.93;;;1.30;;
8982;SDS011;20979;59.850;10.660;2024-01-11T07:25:27;2.37;;;1.17;;
8982;SDS011;20979;59.850;10.660;2024-01-11T07:27:55;1.57;;;1.07;;
8982;SDS011;20979;59.850;10.660;2024-01-11T07:30:22;2.67;;;2.10;;
8982;SDS011;20979;59.850;10.660;2024-01-11T07:32:50;1.90;;;1.70;;
8982;SDS011;20979;59.850;10.660;2024-01-11T07:35:19;3.73;;;2.50;;
8982;SDS011;20979;59.850;10.660;2024-01-11T07:37:46;2.60;;;2.20;;
8982;SDS011;20979;59.850;10.660;2024-01-11T07:40:15;2.77;;;1.90;;
8982;SDS011;20979;59.850;10.660;2024-01-11T07:42:42;4.07;;;2.23;;
8982;SDS011;20979;59.850;10.660;2024-01-11T07:45:11;3.97;;;2.27;;
8982;SDS011;20979;59.850;10.660;2024-01-11T07:47:38;2.10;;;1.57;;
8982;SDS011;20979;59.850;10.660;2024-01-11T07:50:07;1.53;;;1.40;;
8982;SDS011;20979;59.850;10.660;2024-01-11T07:52:36;0.87;;;0.70;;
8982;SDS011;20979;59.850;10.660;2024-01-11T07:55:04;2.93;;;2.40;;
8982;SDS011;20979;59.850;10.660;2024-01-11T07:57:33;2.40;;;1.70;;
8982;SDS011;20979;59.850;10.660;2024-01-11T08:00:00;1.73;;;1.23;;
8982;SDS011;20979;59.850;10.660;2024-01-11T08:02:28;0.70;;;0.70;;
8982;SDS011;20979;59.850;10.660;2024-01-11T08:04:56;1.07;;;0.80;;
8982;SDS011;20979;59.850;10.660;2024-01-11T08:07:24;2.63;;;1.30;;
8982;SDS011;20979;59.850;10.660;2024-01-11T08:09:53;1.20;;;1.10;;
8982;SDS011;20979;59.850;10.660;2024-01-11T08:12:21;0.70;;;0.70;;
8982;SDS011;20979;59.850;10.660;2024-01-11T08:14:48;0.63;;;0.63;;
8982;SDS011;20979;59.850;10.660;2024-01-11T08:17:16;0.60;;;0.60;;
8982;SDS011;20979;59.850;10.660;2024-01-11T08:19:43;1.33;;;0.67;;
8982;SDS011;20979;59.850;10.660;2024-01-11T08:22:10;2.70;;;1.60;;
8982;SDS011;20979;59.850;10.660;2024-01-11T08:24:38;0.80;;;0.80;;
8982;SDS011;20979;59.850;10.660;2024-01-11T08:27:07;0.70;;;0.70;;
8982;SDS011;20979;59.850;10.660;2024-01-11T08:29:34;1.00;;;0.87;;
8982;SDS011;20979;59.850;10.660;2024-01-11T08:32:02;1.07;;;0.60;;
8982;SDS011;20979;59.850;10.660;2024-01-11T08:34:29;2.03;;;0.80;;
8982;SDS011;20979;59.850;10.660;2024-01-11T08:36:57;0.90;;;0.90;;
8982;SDS011;20979;59.850;10.660;2024-01-11T08:39:24;0.93;;;0.80;;
8982;SDS011;20979;59.850;10.660;2024-01-11T08:41:52;1.70;;;1.27;;
8982;SDS011;20979;59.850;10.660;2024-01-11T08:44:21;2.37;;;1.30;;
8982;SDS011;20979;59.850;10.660;2024-01-11T08:46:48;2.73;;;1.80;;
8982;SDS011;20979;59.850;10.660;2024-01-11T08:49:16;2.00;;;1.47;;
8982;SDS011;20979;59.850;10.660;2024-01-11T08:51:44;1.07;;;1.07;;
8982;SDS011;20979;59.850;10.660;2024-01-11T08:54:12;1.13;;;0.70;;
8982;SDS011;20979;59.850;10.660;2024-01-11T08:56:41;2.23;;;1.10;;
8982;SDS011;20979;59.850;10.660;2024-01-11T08:59:08;1.23;;;0.90;;
8982;SDS011;20979;59.850;10.660;2024-01-11T09:01:38;1.00;;;1.00;;
8982;SDS011;20979;59.850;10.660;2024-01-11T09:04:05;2.00;;;1.80;;
8982;SDS011;20979;59.850;10.660;2024-01-11T09:06:34;2.37;;;2.10;;
8982;SDS011;20979;59.850;10.660;2024-01-11T09:09:01;1.23;;;1.10;;
8982;SDS011;20979;59.850;10.660;2024-01-11T09:11:34;2.30;;;1.80;;
8982;SDS011;20979;59.850;10.660;2024-01-11T09:14:01;1.90;;;1.23;;
8982;SDS011;20979;59.850;10.660;2024-01-11T09:16:29;1.03;;;1.00;;
8982;SDS011;20979;59.850;10.660;2024-01-11T09:18:57;1.63;;;1.53;;
8982;SDS011;20979;59.850;10.660;2024-01-11T09:21:25;1.33;;;1.23;;
8982;SDS011;20979;59.850;10.660;2024-01-11T09:23:53;0.70;;;0.70;;
8982;SDS011;20979;59.850;10.660;2024-01-11T09:26:20;1.20;;;1.10;;
8982;SDS011;20979;59.850;10.660;2024-01-11T09:28:48;1.20;;;1.13;;
8982;SDS011;20979;59.850;10.660;2024-01-11T09:31:15;0.97;;;0.93;;
8982;SDS011;20979;59.850;10.660;2024-01-11T09:33:43;1.43;;;1.33;;
8982;SDS011;20979;59.850;10.660;2024-01-11T09:36:12;1.30;;;1.10;;
8982;SDS011;20979;59.850;10.660;2024-01-11T09:38:40;1.13;;;0.97;;
8982;SDS011;20979;59.850;10.660;2024-01-11T09:41:08;0.80;;;0.80;;
8982;SDS011;20979;59.850;10.660;2024-01-11T09:43:35;0.80;;;0.70;;
8982;SDS011;20979;59.850;10.660;2024-01-11T09:46:03;0.73;;;0.67;;
8982;SDS011;20979;59.850;10.660;2024-01-11T09:48:32;1.07;;;0.80;;
8982;SDS011;20979;59.850;10.660;2024-01-11T09:51:00;1.30;;;1.00;;
8982;SDS011;20979;59.850;10.660;2024-01-11T09:53:30;1.03;;;0.97;;
8982;SDS011;20979;59.850;10.660;2024-01-11T09:55:58;0.70;;;0.70;;
8982;SDS011;20979;59.850;10.660;2024-01-11T09:58:26;1.80;;;0.77;;
8982;SDS011;20979;59.850;10.660;2024-01-11T10:00:54;0.60;;;0.60;;
8982;SDS011;20979;59.850;10.660;2024-01-11T10:03:22;1.10;;;0.90;;
8982;SDS011;20979;59.850;10.660;2024-01-11T10:05:52;0.97;;;0.90;;
8982;SDS011;20979;59.850;10.660;2024-01-11T10:08:22;1.90;;;0.90;;
8982;SDS011;20979;59.850;10.660;2024-01-11T10:10:51;6.93;;;3.50;;
8982;SDS011;20979;59.850;10.660;2024-01-11T10:13:21;3.60;;;2.47;;
8982;SDS011;20979;59.850;10.660;2024-01-11T10:15:52;3.33;;;2.30;;
8982;SDS011;20979;59.850;10.660;2024-01-11T10:18:21;3.83;;;2.10;;
8982;SDS011;20979;59.850;10.660;2024-01-11T10:20:48;3.37;;;1.80;;
8982;SDS011;20979;59.850;10.660;2024-01-11T10:23:17;2.30;;;1.80;;
8982;SDS011;20979;59.850;10.660;2024-01-11T10:25:44;4.20;;;2.30;;
8982;SDS011;20979;59.850;10.660;2024-01-11T10:28:14;3.37;;;2.30;;
8982;SDS011;20979;59.850;10.660;2024-01-11T10:30:45;3.60;;;1.80;;
8982;SDS011;20979;59.850;10.660;2024-01-11T10:33:13;3.77;;;2.07;;
8982;SDS011;20979;59.850;10.660;2024-01-11T10:35:41;1.97;;;1.73;;
8982;SDS011;20979;59.850;10.660;2024-01-11T10:38:09;1.87;;;1.63;;
8982;SDS011;20979;59.850;10.660;2024-01-11T10:40:37;2.30;;;1.60;;
8982;SDS011;20979;59.850;10.660;2024-01-11T10:43:04;1.70;;;1.40;;
8982;SDS011;20979;59.850;10.660;2024-01-11T10:45:35;1.30;;;1.20;;
8982;SDS011;20979;59.850;10.660;2024-01-11T10:48:06;2.03;;;1.50;;
8982;SDS011;20979;59.850;10.660;2024-01-11T10:50:34;1.20;;;1.10;;
8982;SDS011;20979;59.850;10.660;2024-01-11T10:53:08;0.53;;;0.50;;
8982;SDS011;20979;59.850;10.660;2024-01-11T10:55:38;1.93;;;0.70;;
8982;SDS011;20979;59.850;10.660;2024-01-11T10:58:07;2.23;;;1.73;;
8982;SDS011;20979;59.850;10.660;2024-01-11T11:00:37;2.60;;;1.40;;
8982;SDS011;20979;59.850;10.660;2024-01-11T11:03:04;1.30;;;1.20;;
8982;SDS011;20979;59.850;10.660;2024-01-11T11:05:34;1.67;;;1.33;;
8982;SDS011;20979;59.850;10.660;2024-01-11T11:08:01;1.33;;;1.23;;
8982;SDS011;20979;59.850;10.660;2024-01-11T11:10:29;3.07;;;1.60;;
8982;SDS011;20979;59.850;10.660;2024-01-11T11:12:57;1.57;;;1.27;;
8982;SDS011;20979;59.850;10.660;2024-01-11T11:15:25;2.00;;;1.30;;
8982;SDS011;20979;59.850;10.660;2024-01-11T11:17:55;1.47;;;1.37;;
8982;SDS011;20979;59.850;10.660;2024-01-11T11:20:22;0.70;;;0.70;;
8982;SDS011;20979;59.850;10.660;2024-01-11T11:23:02;1.90;;;0.80;;
8982;SDS011;20979;59.850;10.660;2024-01-11T11:25:30;1.10;;;1.00;;
8982;SDS011;20979;59.850;10.660;2024-01-11T11:27:58;1.97;;;1.30;;
8982;SDS011;20979;59.850;10.660;2024-01-11T11:30:29;1.40;;;1.30;;
8982;SDS011;20979;59.850;10.660;2024-01-11T11:32:58;1.87;;;1.00;;
8982;SDS011;20979;59.850;10.660;2024-01-11T11:35:34;1.57;;;1.13;;
8982;SDS011;20979;59.850;10.660;2024-01-11T11:38:02;1.23;;;1.10;;
8982;SDS011;20979;59.850;10.660;2024-01-11T11:40:33;2.10;;;1.23;;
8982;SDS011;20979;59.850;10.660;2024-01-11T11:43:05;2.13;;;1.50;;
8982;SDS011;20979;59.850;10.660;2024-01-11T11:45:32;0.50;;;0.50;;
8982;SDS011;20979;59.850;10.660;2024-01-11T11:48:01;0.73;;;0.60;;
8982;SDS011;20979;59.850;10.660;2024-01-11T11:50:29;0.60;;;0.50;;
8982;SDS011;20979;59.850;10.660;2024-01-11T11:52:57;0.70;;;0.70;;
8982;SDS011;20979;59.850;10.660;2024-01-11T11:55:25;0.50;;;0.50;;
8982;SDS011;20979;59.850;10.660;2024-01-11T11:57:53;0.70;;;0.70;;
8982;SDS011;20979;59.850;10.660;2024-01-11T12:00:21;0.70;;;0.60;;
8982;SDS011;20979;59.850;10.660;2024-01-11T12:02:48;1.73;;;0.50;;
8982;SDS011;20979;59.850;10.660;2024-01-11T12:05:19;0.57;;;0.57;;
8982;SDS011;20979;59.850;10.660;2024-01-11T12:07:46;0.50;;;0.50;;
8982;SDS011;20979;59.850;10.660;2024-01-11T12:10:14;0.57;;;0.57;;
8982;SDS011;20979;59.850;10.660;2024-01-11T12:12:42;0.50;;;0.40;;
8982;SDS011;20979;59.850;10.660;2024-01-11T12:15:09;0.30;;;0.30;;
8982;SDS011;20979;59.850;10.660;2024-01-11T12:17:37;0.70;;;0.70;;
8982;SDS011;20979;59.850;10.660;2024-01-11T12:20:07;0.60;;;0.60;;
8982;SDS011;20979;59.850;10.660;2024-01-11T12:22:36;2.17;;;1.20;;
8982;SDS011;20979;59.850;10.660;2024-01-11T12:25:04;1.00;;;0.90;;
8982;SDS011;20979;59.850;10.660;2024-01-11T12:27:31;0.60;;;0.60;;
8982;SDS011;20979;59.850;10.660;2024-01-11T12:29:59;0.70;;;0.70;;
8982;SDS011;20979;59.850;10.660;2024-01-11T12:32:28;0.60;;;0.60;;
8982;SDS011;20979;59.850;10.660;2024-01-11T12:34:56;0.50;;;0.50;;
8982;SDS011;20979;59.850;10.660;2024-01-11T12:37:24;1.03;;;0.87;;
8982;SDS011;20979;59.850;10.660;2024-01-11T12:39:57;2.10;;;0.87;;
8982;SDS011;20979;59.850;10.660;2024-01-11T12:42:25;2.93;;;2.30;;
8982;SDS011;20979;59.850;10.660;2024-01-11T12:44:52;2.30;;;1.20;;
8982;SDS011;20979;59.850;10.660;2024-01-11T12:47:20;0.50;;;0.50;;
8982;SDS011;20979;59.850;10.660;2024-01-11T12:49:47;0.33;;;0.33;;
8982;SDS011;20979;59.850;10.660;2024-01-11T12:52:17;0.33;;;0.33;;
8982;SDS011;20979;59.850;10.660;2024-01-11T12:54:44;0.50;;;0.50;;
8982;SDS011;20979;59.850;10.660;2024-01-11T12:57:13;0.80;;;0.80;;
8982;SDS011;20979;59.850;10.660;2024-01-11T12:59:45;1.00;;;0.60;;
8982;SDS011;20979;59.850;10.660;2024-01-11T13:02:12;1.67;;;1.30;;
8982;SDS011;20979;59.850;10.660;2024-01-11T13:04:40;0.73;;;0.60;;
8982;SDS011;20979;59.850;10.660;2024-01-11T13:07:07;0.50;;;0.50;;
8982;SDS011;20979;59.850;10.660;2024-01-11T13:09:36;1.07;;;0.60;;
8982;SDS011;20979;59.850;10.660;2024-01-11T13:12:04;0.40;;;0.40;;
8982;SDS011;20979;59.850;10.660;2024-01-11T13:14:32;1.07;;;0.97;;
8982;SDS011;20979;59.850;10.660;2024-01-11T13:17:00;1.30;;;1.20;;
8982;SDS011;20979;59.850;10.660;2024-01-11T13:19:27;0.93;;;0.80;;
8982;SDS011;20979;59.850;10.660;2024-01-11T13:21:55;1.57;;;0.73;;
8982;SDS011;20979;59.850;10.660;2024-01-11T13:24:22;1.07;;;0.70;;
8982;SDS011;20979;59.850;10.660;2024-01-11T13:26:50;0.57;;;0.57;;
8982;SDS011;20979;59.850;10.660;2024-01-11T13:29:17;0.40;;;0.40;;
8982;SDS011;20979;59.850;10.660;2024-01-11T13:31:46;0.40;;;0.40;;
8982;SDS011;20979;59.850;10.660;2024-01-11T13:34:13;0.53;;;0.40;;
8982;SDS011;20979;59.850;10.660;2024-01-11T13:36:40;0.50;;;0.50;;
8982;SDS011;20979;59.850;10.660;2024-01-11T13:39:08;1.30;;;1.03;;
8982;SDS011;20979;59.850;10.660;2024-01-11T13:41:36;0.97;;;0.80;;
8982;SDS011;20979;59.850;10.660;2024-01-11T13:44:05;0.53;;;0.53;;
8982;SDS011;20979;59.850;10.660;2024-01-11T13:46:34;1.47;;;1.20;;
8982;SDS011;20979;59.850;10.660;2024-01-11T13:49:03;0.50;;;0.50;;
8982;SDS011;20979;59.850;10.660;2024-01-11T13:51:30;3.47;;;2.63;;
8982;SDS011;20979;59.850;10.660;2024-01-11T13:53:58;1.40;;;1.30;;
8982;SDS011;20979;59.850;10.660;2024-01-11T13:56:25;0.43;;;0.43;;
8982;SDS011;20979;59.850;10.660;2024-01-11T13:58:53;0.60;;;0.60;;
8982;SDS011;20979;59.850;10.660;2024-01-11T14:01:21;0.87;;;0.57;;
8982;SDS011;20979;59.850;10.660;2024-01-11T14:03:48;0.57;;;0.50;;
8982;SDS011;20979;59.850;10.660;2024-01-11T14:06:17;2.00;;;0.83;;
8982;SDS011;20979;59.850;10.660;2024-01-11T14:08:45;1.30;;;0.70;;
8982;SDS011;20979;59.850;10.660;2024-01-11T14:11:12;0.50;;;0.50;;
8982;SDS011;20979;59.850;10.660;2024-01-11T14:13:39;0.57;;;0.50;;
8982;SDS011;20979;59.850;10.660;2024-01-11T14:16:07;0.67;;;0.60;;
8982;SDS011;20979;59.850;10.660;2024-01-11T14:18:34;0.60;;;0.60;;
8982;SDS011;20979;59.850;10.660;2024-01-11T14:21:02;0.47;;;0.47;;
8982;SDS011;20979;59.850;10.660;2024-01-11T14:23:31;0.80;;;0.80;;
8982;SDS011;20979;59.850;10.660;2024-01-11T14:25:58;0.83;;;0.70;;
8982;SDS011;20979;59.850;10.660;2024-01-11T14:28:26;0.77;;;0.57;;
8982;SDS011;20979;59.850;10.660;2024-01-11T14:30:53;0.83;;;0.70;;
8982;SDS011;20979;59.850;10.660;2024-01-11T14:33:20;0.80;;;0.80;;
8982;SDS011;20979;59.850;10.660;2024-01-11T14:35:48;0.73;;;0.73;;
8982;SDS011;20979;59.850;10.660;2024-01-11T14:38:16;0.63;;;0.50;;
8982;SDS011;20979;59.850;10.660;2024-01-11T14:40:44;1.10;;;0.60;;
8982;SDS011;20979;59.850;10.660;2024-01-11T14:43:12;0.73;;;0.73;;
8982;SDS011;20979;59.850;10.660;2024-01-11T14:45:39;0.60;;;0.60;;